Terminal Aerodrome Forecast
Issued by NWS

Home | Current Version | Previous Version | Text Only | Print | Product List | Glossary On
Versions: 1 2 3 4 5 6 7 8 9 10 11 12 13 14 15
000
FTUS43 KOAX 211700
TAFSNY
TAF
KSNY 211720Z 2118/2218 20008KT P6SM FEW120
     FM212000 19015G25KT P6SM SCT100 BKN200
     FM220000 18012KT P6SM VCSH SCT050 BKN120
     FM220500 29008KT P6SM BKN250=

USA.gov is the U.S. government's official web portal to all federal, state and local government web resources and services.